메인 페이지
METAR-TAF:

METAR-TAF

공항 :

Santa Barbara Municipal Airport

샌타바버라, 캘리포니아, 미국

위도: 34-25-34N, 경도: 119-50-37W, 고도: 3m

현재 날씨관측

예보는 31분 전, 05:53시(UTC)에 발표되었습니다.
무풍
온도 14°C
습도 94%
기압 1010 hPa
시정: 12.9km
맑음

METAR: KSBA 200553Z AUTO 00000KT 8SM CLR 14/13 A2983 RMK AO2 SLP100 T01440128 10200 20144 53006 $

시각: 23:24 (06:24 UTC)

예보

예보는 38분 전, 05:46시(UTC)에 발표되었습니다.
예보 대상 시간: 20일 06시부터 21일 06시까지 (UTC)
여러 방향의 바람 3kt
시정: 10km
맑음
20일 1600시부터 (UTC)
남남동6kt
시정: 10km
맑음
20일 1900시부터 (UTC)
서남서8kt
시정: 10km
맑음
21일 0400시부터 (UTC)
동남동5kt
시정: 10km
맑음

TAF: KSBA 200546Z 2006/2106 VRB03KT P6SM SKC FM201600 15006KT P6SM SKC FM201900 24008KT P6SM SKC FM210400 12005KT P6SM SKC

4,000개 이상의 공항 관측 자료 및 예보 (METAR 및 TAF 보고).

지도상에서 검색 가능한 기상관측소가 노란 점과 빨간 점으로 표시되어 있습니다.

기상관측소 명을 보려면 표시 위로 마우스를 이동하세요.

날씨 관측과 예보를 보려면 클릭하세요.

지도 변경 : 확대하려면 엑스 표시가 있는 녹색 버튼, 축소하려면 빼기 표시가 있는 녹색 버튼, 다음 페이지의 지도를 보려면 녹색 화살표를 클릭하세요.


METAR-TAF: